Phoenix, AZ (85001)

8:30 PM MST on February 07, 2016 (GMT -0700)
Willo Historic District | | Change Station
CLOSE
Current Station
Personal Weather Station
Location: Phoenix, AZ
Elevation: 1086 ft
Nearby Weather Stations

Elev 1086 ft 33.47 °N, 112.08 °W | Updated 11 seconds ago

Clear
Clear
56.1 °F
Feels Like 56.1 °F
N
0.0
Wind Variable Wind from SSW
Gusts 0.0 mph

Today
High -- | Low -- °F
--% Chance of Precip.
Yesterday
High -- | Low -- °F
Precip. -- in
Pressure 30.11 in
Visibility 10.0 miles
Clouds Few 25000 ft
Dew Point 35 °F
Humidity 45%
Rainfall 0.00 in
Snow Depth Not available.
7:20 AM 6:05 PM
Waning Crescent, 0% visible
METAR KPHX 080251Z 25003KT 10SM FEW250 19/M03 A3013 RMK AO2 SLP195 T01941033 53013
Pressure 30.11 in
Visibility 10.0 miles
Clouds Few 25000 ft
Dew Point 35 °F
Humidity 45%
Rainfall 0.00 in
Snow Depth Not available.
7:20 AM 6:05 PM
Waning Crescent, 0% visible
METAR KPHX 080251Z 25003KT 10SM FEW250 19/M03 A3013 RMK AO2 SLP195 T01941033 53013

10-Day Weather Forecast

Almanac

Astronomy

Feb. 07, 2016 Rise Set
Actual Time
Civil Twilight
Nautical Twilight
Astronomical Twilight
Moon
Length of Visible Light
Length of Day
Tomorrow will be .
, % of the Moon is Illuminated

Today's Extremes

State Highs State Lows

Community

WunderPhotos

Upload Photos

1,891,377 photos uploaded!

WunderBlog® & News

Nearby

Air Quality

  Air Quality AQ Index Pollutant
Not available.

Snow Depth

Station Depth Elevation

Earthquake Activity

City Distance Mag. Time & Date
Minimum magnitude displayed is 2.5.

Coastal Water Temperatures

Place Temperature

Stations

Nearby Weather Stations

Station Location Temp. Windchill Dew Point Humidity Wind Precip. Elev Updated Type
                   

Watches & Warnings

There are currently no watches in effect.